This is the latest recevied weather packets stored in our database for station/object K9ABJ. If no packets are shown the sender has not sent any weather packets the latest 10 day(s).
| Time | Temp. | Humidity | Pressure | Rain* | Wind** | Luminosity | Snow |
|---|---|---|---|---|---|---|---|
| 1787703840 | 21.11° C | 71% | 1018.3 hPa | 0 mm | - | 0 W/m² | - |
| 1787703536 | 21.67° C | 70% | 1018.4 hPa | 0 mm | - | 2 W/m² | - |
| 1787703235 | 21.67° C | 69% | 1018.2 hPa | 0 mm | - | 6 W/m² | - |
| 1787702931 | 21.67° C | 68% | 1018.1 hPa | 0 mm | - | 10 W/m² | - |
| 1787702626 | 22.22° C | 68% | 1018.3 hPa | 0 mm | - | 15 W/m² | - |
| 1787702321 | 22.22° C | 68% | 1018.2 hPa | 0 mm | - | 17 W/m² | - |
| 1787702021 | 22.22° C | 66% | 1018.3 hPa | 0 mm | - | 20 W/m² | - |
| 1787701718 | 22.78° C | 65% | 1018.2 hPa | 0 mm | - | 22 W/m² | - |
| 1787701413 | 22.78° C | 65% | 1018 hPa | 0 mm | - | 22 W/m² | - |
| 1787701108 | 22.78° C | 63% | 1018.1 hPa | 0 mm | - | 24 W/m² | - |
| 1787700804 | 23.33° C | 63% | 1018.1 hPa | 0 mm | - | 27 W/m² | - |
| 1787700500 | 23.89° C | 60% | 1018.2 hPa | 0 mm | - | 29 W/m² | - |
| 1787700196 | 23.89° C | 58% | 1018 hPa | 0 mm | - | 32 W/m² | - |
| 1787699892 | 23.89° C | 57% | 1018 hPa | 0 mm | - | 39 W/m² | - |
| 1787699587 | 24.44° C | 56% | 1018.1 hPa | 0 mm | - | 48 W/m² | - |
| 1787699282 | 24.44° C | 55% | 1018.2 hPa | 0 mm | - | 66 W/m² | - |
| 1787698973 | 25° C | 54% | 1018 hPa | 0 mm | - | 83 W/m² | - |
| 1787698672 | 25° C | 53% | 1018 hPa | 0 mm | - | 103 W/m² | - |
| 1787698369 | 25° C | 53% | 1018 hPa | 0 mm | - | 120 W/m² | - |
| 1787698064 | 25° C | 52% | 1017.5 hPa | 0 mm | - | 119 W/m² | - |
| 1787697764 | 25.56° C | 52% | 1018 hPa | 0 mm | - | 127 W/m² | - |
| 1787697460 | 25.56° C | 53% | 1018 hPa | 0 mm | - | 110 W/m² | - |
| 1787697155 | 25° C | 53% | 1018 hPa | 0 mm | - | 210 W/m² | - |
| 1787696851 | 25° C | 53% | 1017.7 hPa | 0 mm | - | 209 W/m² | - |
| 1787696547 | 25.56° C | 54% | 1018 hPa | 0 mm | - | 147 W/m² | - |
* Rain latest hour (hover to see other rain measurements)
** Current wind speed in m/s (hover to see current wind gust speed)